createdAt,value
2019-03-12T00:00:57.288Z,7.03
2019-03-12T00:03:27.595Z,7.20
2019-03-12T00:05:57.823Z,7.27
2019-03-12T00:08:28.136Z,7.93
2019-03-12T00:10:58.373Z,8.03
2019-03-12T00:13:29.154Z,7.60
2019-03-12T00:15:59.431Z,8.20
2019-03-12T00:18:29.695Z,7.73
2019-03-12T00:21:00.110Z,8.47
2019-03-12T00:23:30.505Z,6.87
2019-03-12T00:26:00.835Z,6.50
2019-03-12T00:28:31.199Z,10.33
2019-03-12T00:31:01.477Z,9.87
2019-03-12T00:33:31.800Z,8.00
2019-03-12T00:36:02.027Z,7.33
2019-03-12T00:38:32.298Z,6.93
2019-03-12T00:41:02.631Z,7.90
2019-03-12T00:43:33.103Z,8.00
2019-03-12T00:46:03.439Z,6.73
2019-03-12T00:48:33.843Z,7.00
2019-03-12T00:51:04.073Z,5.53
2019-03-12T00:53:34.345Z,7.40
2019-03-12T00:56:04.871Z,6.07
2019-03-12T00:58:35.135Z,7.60
2019-03-12T01:01:05.366Z,6.40
2019-03-12T01:03:35.736Z,6.57
2019-03-12T01:06:06.188Z,7.47
2019-03-12T01:08:36.468Z,7.77
2019-03-12T01:11:06.660Z,7.33
2019-03-12T01:13:37.555Z,6.43
2019-03-12T01:16:07.891Z,11.33
2019-03-12T01:18:38.255Z,8.53
2019-03-12T01:21:08.487Z,6.97
2019-03-12T01:23:38.907Z,7.33
2019-03-12T01:26:09.108Z,8.50
2019-03-12T01:28:39.383Z,7.97
2019-03-12T01:31:09.727Z,7.23
2019-03-12T01:33:39.948Z,7.57
2019-03-12T01:36:10.214Z,7.37
2019-03-12T01:38:40.551Z,6.70
2019-03-12T01:41:10.898Z,8.33
2019-03-12T01:43:41.267Z,8.13
2019-03-12T01:46:10.946Z,7.17
2019-03-12T01:48:41.150Z,7.53
2019-03-12T01:51:11.935Z,7.17
2019-03-12T01:53:42.598Z,8.80
2019-03-12T01:56:13.030Z,7.67
2019-03-12T01:58:43.422Z,8.20
2019-03-12T02:01:13.631Z,8.70
2019-03-12T02:03:44.059Z,7.30
2019-03-12T02:06:14.343Z,6.57
2019-03-12T02:08:44.615Z,7.90
2019-03-12T02:11:14.976Z,8.73
2019-03-12T02:13:45.531Z,8.97
2019-03-12T02:16:16.127Z,5.90
2019-03-12T02:18:46.848Z,8.33
2019-03-12T02:21:17.171Z,6.67
2019-03-12T02:23:47.642Z,8.07
2019-03-12T02:26:17.963Z,7.13
2019-03-12T02:28:48.334Z,6.77
2019-03-12T02:31:18.674Z,8.40
2019-03-12T02:33:48.970Z,8.47
2019-03-12T02:36:19.424Z,8.40
2019-03-12T02:38:49.677Z,7.63
2019-03-12T02:41:20.095Z,8.17
2019-03-12T02:43:50.473Z,7.83
2019-03-12T02:46:20.785Z,6.67
2019-03-12T02:48:50.433Z,6.97
2019-03-12T02:51:20.612Z,8.00
2019-03-12T02:53:50.974Z,7.13
2019-03-12T02:56:21.189Z,7.97
2019-03-12T02:58:51.432Z,8.40
2019-03-12T03:01:21.535Z,7.93
2019-03-12T03:03:52.125Z,7.93
2019-03-12T03:06:27.347Z,8.33
2019-03-12T03:08:57.729Z,7.27
2019-03-12T03:11:27.971Z,7.90
2019-03-12T03:13:58.359Z,8.67
2019-03-12T03:16:28.653Z,8.47
2019-03-12T03:18:59.039Z,8.50
2019-03-12T03:21:29.454Z,7.87
2019-03-12T03:23:59.710Z,7.67
2019-03-12T03:26:29.915Z,10.87
2019-03-12T03:29:00.239Z,7.90
2019-03-12T03:31:30.879Z,8.57
2019-03-12T03:34:01.135Z,7.30
2019-03-12T03:36:31.452Z,7.60
2019-03-12T03:39:01.626Z,8.23
2019-03-12T03:41:34.736Z,8.67
2019-03-12T03:44:02.855Z,7.73
2019-03-12T03:46:33.121Z,7.47
2019-03-12T03:49:03.412Z,7.33
2019-03-12T03:51:33.673Z,7.73
2019-03-12T03:54:04.157Z,6.50
2019-03-12T03:56:34.487Z,6.87
2019-03-12T03:59:04.753Z,6.63
2019-03-12T04:01:34.965Z,5.93
2019-03-12T04:04:05.277Z,6.30
2019-03-12T04:06:35.590Z,6.33
2019-03-12T04:09:06.631Z,5.43
2019-03-12T04:11:36.816Z,6.80
2019-03-12T04:14:07.148Z,6.07
2019-03-12T04:16:37.593Z,5.40
2019-03-12T04:19:08.092Z,6.67
2019-03-12T04:21:38.369Z,6.90
2019-03-12T04:24:08.832Z,6.60
2019-03-12T04:26:39.208Z,7.03
2019-03-12T04:29:09.497Z,5.90
2019-03-12T04:31:39.827Z,6.27
2019-03-12T04:34:15.748Z,4.37
2019-03-12T04:36:46.845Z,5.90
2019-03-12T04:39:17.142Z,6.13
2019-03-12T04:41:47.543Z,4.37
2019-03-12T04:44:17.945Z,4.23
2019-03-12T04:46:48.288Z,5.00
2019-03-12T04:49:18.647Z,5.30
2019-03-12T04:51:49.087Z,4.33
2019-03-12T04:54:19.395Z,5.87
2019-03-12T04:56:49.658Z,6.20
2019-03-12T04:59:19.987Z,5.80
2019-03-12T05:01:50.423Z,5.70
2019-03-12T05:04:20.772Z,5.47
2019-03-12T05:06:51.496Z,6.90
2019-03-12T05:09:21.863Z,5.70
2019-03-12T05:11:51.591Z,8.40
2019-03-12T05:14:26.228Z,6.20
2019-03-12T05:16:59.392Z,6.27
2019-03-12T05:19:30.243Z,5.57
2019-03-12T05:22:00.512Z,5.67
2019-03-12T05:24:30.915Z,10.00
2019-03-12T05:27:00.933Z,6.53
2019-03-12T05:29:31.258Z,6.90
2019-03-12T05:32:01.658Z,5.83
2019-03-12T05:34:32.031Z,6.50
2019-03-12T05:37:02.363Z,6.00
2019-03-12T05:39:32.673Z,5.80
2019-03-12T05:42:03.007Z,5.93
2019-03-12T05:44:33.659Z,4.80
2019-03-12T05:47:03.501Z,7.10
2019-03-12T05:49:34.152Z,5.43
2019-03-12T05:52:04.421Z,5.63
2019-03-12T05:54:34.772Z,6.57
2019-03-12T05:57:05.035Z,4.10
2019-03-12T05:59:35.306Z,5.30
2019-03-12T06:02:05.089Z,5.43
2019-03-12T06:04:35.339Z,5.77
2019-03-12T06:07:05.743Z,4.93
2019-03-12T06:09:36.063Z,4.53
2019-03-12T06:12:06.423Z,5.03
2019-03-12T06:14:36.607Z,5.60
2019-03-12T06:17:07.032Z,4.10
2019-03-12T06:19:37.302Z,4.63
2019-03-12T06:22:07.635Z,4.83
2019-03-12T06:24:37.862Z,4.67
2019-03-12T06:27:08.083Z,5.33
2019-03-12T06:29:38.411Z,5.23
2019-03-12T06:32:19.915Z,4.93
2019-03-12T06:34:54.810Z,4.43
2019-03-12T06:37:29.233Z,4.80
2019-03-12T06:40:05.493Z,4.47
2019-03-12T06:42:47.490Z,3.50
2019-03-12T06:45:31.536Z,5.60
2019-03-12T06:48:11.748Z,4.60
2019-03-12T06:50:47.138Z,4.67
2019-03-12T06:53:23.501Z,5.00
2019-03-12T06:56:00.847Z,5.80
2019-03-12T06:58:50.977Z,4.40
2019-03-12T07:01:26.307Z,5.00
2019-03-12T07:04:01.375Z,4.73
2019-03-12T07:06:36.523Z,3.77
2019-03-12T07:10:13.886Z,4.70
2019-03-12T07:12:59.263Z,3.37
2019-03-12T07:16:31.959Z,4.60
2019-03-12T07:19:08.524Z,6.07
2019-03-12T07:21:46.933Z,5.90
2019-03-12T07:25:19.828Z,4.60
2019-03-12T07:28:52.918Z,6.33
2019-03-12T07:31:31.128Z,4.77
2019-03-12T07:34:10.347Z,4.73
2019-03-12T07:38:49.812Z,4.57
2019-03-12T07:41:32.672Z,5.87
2019-03-12T07:44:05.483Z,5.13
2019-03-12T07:47:13.110Z,3.80
2019-03-12T07:49:53.143Z,4.47
2019-03-12T07:52:34.954Z,4.63
2019-03-12T07:55:11.423Z,4.77
2019-03-12T07:57:46.650Z,4.90
2019-03-12T08:00:21.071Z,5.27
2019-03-12T08:02:58.575Z,5.57
2019-03-12T08:05:34.018Z,5.40
2019-03-12T08:08:09.990Z,6.03
2019-03-12T08:10:48.151Z,6.07
2019-03-12T08:13:54.923Z,4.73
2019-03-12T08:16:33.887Z,6.30
2019-03-12T08:19:40.563Z,5.50
2019-03-12T08:22:16.513Z,6.13
2019-03-12T08:24:54.013Z,6.53
2019-03-12T08:27:32.220Z,6.10
2019-03-12T08:30:07.477Z,6.87
2019-03-12T08:32:43.828Z,7.57
2019-03-12T08:35:19.166Z,6.47
2019-03-12T08:37:53.586Z,6.33
2019-03-12T08:40:28.007Z,7.37
2019-03-12T08:43:10.210Z,6.50
2019-03-12T08:45:49.890Z,5.20
2019-03-12T08:48:39.836Z,6.13
2019-03-12T08:51:18.966Z,7.00
2019-03-12T08:53:55.332Z,5.63
2019-03-12T08:56:38.559Z,5.07
2019-03-12T08:59:16.770Z,5.50
2019-03-12T09:02:03.020Z,6.20
2019-03-12T09:04:38.203Z,5.27
2019-03-12T09:07:22.043Z,5.43
2019-03-12T09:09:59.115Z,4.80
2019-03-12T09:14:37.757Z,4.17
2019-03-12T09:17:12.076Z,4.17
2019-03-12T09:19:47.419Z,5.07
2019-03-12T09:22:21.787Z,4.57
2019-03-12T09:25:05.206Z,4.20
2019-03-12T09:27:42.711Z,5.17
2019-03-12T09:30:17.374Z,3.90
2019-03-12T09:32:52.703Z,4.17
2019-03-12T09:35:43.121Z,3.33
2019-03-12T09:38:44.577Z,4.20
2019-03-12T09:41:21.895Z,4.07
2019-03-12T09:44:24.209Z,4.10
2019-03-12T09:46:59.067Z,3.97
2019-03-12T09:49:37.266Z,4.33
2019-03-12T09:53:12.418Z,5.10
2019-03-12T09:55:50.833Z,4.07
2019-03-12T09:59:29.048Z,4.20
2019-03-12T10:02:04.287Z,4.43
2019-03-12T10:05:39.430Z,4.13
2019-03-12T10:09:13.040Z,4.00
2019-03-12T10:12:02.719Z,3.70
2019-03-12T10:14:38.332Z,4.43
2019-03-12T10:17:16.441Z,3.30
2019-03-12T10:19:51.815Z,4.37
2019-03-12T10:22:35.141Z,4.80
2019-03-12T10:25:10.639Z,4.70
2019-03-12T10:27:45.943Z,4.83
2019-03-12T10:31:21.996Z,4.13
2019-03-12T10:33:58.255Z,4.30
2019-03-12T10:36:37.795Z,3.67
2019-03-12T10:39:24.093Z,4.37
2019-03-12T10:41:59.332Z,4.00
2019-03-12T10:44:36.539Z,4.23
2019-03-12T10:47:11.283Z,4.03
2019-03-12T10:49:41.977Z,4.20
2019-03-12T10:52:12.443Z,4.20
2019-03-12T10:54:42.984Z,3.97
2019-03-12T10:57:13.222Z,3.80
2019-03-12T10:59:43.558Z,4.00
2019-03-12T11:02:13.837Z,2.80
2019-03-12T11:04:44.383Z,4.07
2019-03-12T11:07:16.748Z,4.47
2019-03-12T11:09:45.419Z,4.50
2019-03-12T11:12:15.643Z,4.70
2019-03-12T11:14:46.075Z,4.60
2019-03-12T11:17:16.401Z,4.27
2019-03-12T11:19:46.788Z,4.77
2019-03-12T11:22:16.879Z,5.33
2019-03-12T11:24:47.353Z,6.77
2019-03-12T11:27:17.540Z,5.97
2019-03-12T11:29:47.805Z,6.10
2019-03-12T11:32:18.036Z,6.43
2019-03-12T11:34:48.424Z,4.80
2019-03-12T11:37:18.639Z,5.70
2019-03-12T11:39:48.827Z,6.37
2019-03-12T11:42:19.403Z,5.90
2019-03-12T11:44:49.563Z,5.60
2019-03-12T11:47:19.881Z,5.47
2019-03-12T11:49:51.068Z,5.20
2019-03-12T11:52:21.347Z,5.87
2019-03-12T11:54:51.801Z,6.03
2019-03-12T11:57:22.138Z,6.00
2019-03-12T11:59:52.492Z,6.40
2019-03-12T12:02:22.779Z,5.47
2019-03-12T12:04:53.088Z,4.27
2019-03-12T12:07:23.303Z,4.13
2019-03-12T12:09:54.315Z,3.80
2019-03-12T12:12:24.608Z,4.10
2019-03-12T12:14:54.944Z,4.10
2019-03-12T12:17:25.288Z,4.00
2019-03-12T12:19:55.462Z,4.30
2019-03-12T12:22:25.783Z,3.90
2019-03-12T12:24:55.978Z,4.87
2019-03-12T12:27:26.315Z,4.77
2019-03-12T12:29:56.062Z,4.50
2019-03-12T12:32:26.218Z,4.10
2019-03-12T12:34:56.436Z,4.17
2019-03-12T12:37:26.719Z,4.30
2019-03-12T12:39:57.063Z,3.97
2019-03-12T12:42:27.560Z,4.10
2019-03-12T12:44:57.838Z,3.87
2019-03-12T12:47:28.192Z,4.40
2019-03-12T12:49:58.691Z,4.33
2019-03-12T12:52:29.058Z,4.23
2019-03-12T12:54:59.623Z,4.20
2019-03-12T12:57:29.726Z,4.50
2019-03-12T12:59:59.975Z,4.03
2019-03-12T13:02:30.201Z,4.80
2019-03-12T13:05:00.597Z,4.30
2019-03-12T13:07:30.789Z,5.17
2019-03-12T13:10:01.720Z,4.90
2019-03-12T13:12:31.955Z,4.90
2019-03-12T13:15:02.238Z,4.30
2019-03-12T13:17:32.592Z,4.50
2019-03-12T13:20:02.903Z,4.60
2019-03-12T13:22:33.111Z,4.20
2019-03-12T13:25:03.368Z,4.60
2019-03-12T13:27:42.271Z,5.23
2019-03-12T13:30:04.206Z,4.10
2019-03-12T13:32:34.596Z,4.40
2019-03-12T13:35:05.295Z,4.20
2019-03-12T13:37:35.635Z,4.80
2019-03-12T13:40:06.207Z,4.27
2019-03-12T13:42:36.471Z,4.23
2019-03-12T13:45:07.546Z,4.17
2019-03-12T13:47:37.948Z,3.87
2019-03-12T13:50:08.641Z,3.73
2019-03-12T13:52:39.095Z,3.23
2019-03-12T13:55:09.728Z,3.73
2019-03-12T13:57:39.979Z,3.90
2019-03-12T14:00:14.231Z,3.53
2019-03-12T14:02:44.517Z,3.60
2019-03-12T14:05:14.963Z,3.40
2019-03-12T14:07:45.397Z,3.30
2019-03-12T14:10:19.003Z,3.30
2019-03-12T14:12:49.515Z,2.20
2019-03-12T14:15:22.207Z,2.10
2019-03-12T14:17:52.510Z,2.40
2019-03-12T14:21:27.992Z,2.50
2019-03-12T14:24:00.937Z,2.60
2019-03-12T14:26:31.237Z,3.20
2019-03-12T14:29:01.489Z,2.73
2019-03-12T14:31:32.219Z,3.40
2019-03-12T14:34:02.526Z,2.53
2019-03-12T14:36:32.919Z,2.83
2019-03-12T14:39:03.723Z,3.00
2019-03-12T14:41:33.998Z,2.70
2019-03-12T14:44:04.222Z,2.40
2019-03-12T14:46:34.535Z,2.47
2019-03-12T14:49:06.762Z,1.93
2019-03-12T14:51:52.877Z,1.90
2019-03-12T14:54:23.100Z,1.97
2019-03-12T14:56:53.441Z,1.90
2019-03-12T14:59:23.753Z,1.90
2019-03-12T15:01:54.099Z,2.20
2019-03-12T15:04:24.440Z,2.20
2019-03-12T15:06:54.706Z,2.03
2019-03-12T15:09:25.026Z,1.93
2019-03-12T15:11:55.713Z,1.70
2019-03-12T15:14:25.960Z,2.30
2019-03-12T15:16:56.207Z,2.30
2019-03-12T15:19:26.422Z,2.30
2019-03-12T15:21:56.779Z,2.20
2019-03-12T15:24:26.996Z,1.87
2019-03-12T15:26:57.316Z,2.70
2019-03-12T15:29:27.597Z,2.47
2019-03-12T15:32:04.105Z,2.00
2019-03-12T15:34:28.258Z,2.30
2019-03-12T15:36:58.660Z,2.40
2019-03-12T15:39:28.907Z,2.53
2019-03-12T15:41:59.043Z,2.87
2019-03-12T15:44:29.239Z,2.50
2019-03-12T15:46:59.653Z,2.20
2019-03-12T15:49:29.831Z,2.67
2019-03-12T15:52:00.488Z,2.83
2019-03-12T15:54:30.771Z,2.53
2019-03-12T15:57:01.088Z,3.30
2019-03-12T15:59:31.338Z,2.93
2019-03-12T16:02:01.708Z,3.73
2019-03-12T16:04:31.959Z,3.17
2019-03-12T16:07:02.296Z,3.47
2019-03-12T16:09:32.007Z,3.60
2019-03-12T16:12:02.571Z,3.73
2019-03-12T16:14:32.785Z,4.00
2019-03-12T16:17:03.102Z,3.97
2019-03-12T16:19:33.378Z,4.53
2019-03-12T16:22:03.822Z,4.77
2019-03-12T16:24:34.126Z,4.03
2019-03-12T16:27:04.459Z,4.03
2019-03-12T16:29:34.729Z,3.77
2019-03-12T16:32:05.071Z,4.20
2019-03-12T16:34:35.321Z,4.63
2019-03-12T16:37:05.745Z,4.00
2019-03-12T16:39:36.099Z,4.63
2019-03-12T16:42:06.458Z,4.20
2019-03-12T16:44:36.575Z,4.20
2019-03-12T16:47:06.908Z,3.83
2019-03-12T16:49:37.019Z,3.30
2019-03-12T16:52:07.171Z,3.77
2019-03-12T16:54:37.398Z,3.87
2019-03-12T16:57:07.718Z,4.30
2019-03-12T16:59:37.999Z,4.07
2019-03-12T17:02:08.248Z,4.00
2019-03-12T17:04:38.444Z,4.40
2019-03-12T17:07:08.762Z,5.23
2019-03-12T17:09:39.065Z,5.37
2019-03-12T17:12:09.878Z,6.40
2019-03-12T17:14:40.059Z,5.30
2019-03-12T17:17:10.360Z,5.83
2019-03-12T17:19:40.716Z,5.43
2019-03-12T17:22:10.859Z,4.83
2019-03-12T17:24:41.082Z,5.30
2019-03-12T17:27:11.435Z,7.83
2019-03-12T17:29:41.580Z,6.17
2019-03-12T17:32:11.349Z,4.80
2019-03-12T17:34:41.539Z,5.23
2019-03-12T17:37:11.798Z,6.27
2019-03-12T17:39:42.044Z,9.33
2019-03-12T17:42:12.356Z,17.27
2019-03-12T17:44:42.682Z,13.73
2019-03-12T17:47:13.020Z,14.23
2019-03-12T17:49:43.289Z,12.00
2019-03-12T17:52:13.634Z,11.30
2019-03-12T17:54:43.922Z,12.60
2019-03-12T17:57:14.183Z,10.37
2019-03-12T17:59:44.272Z,9.73
2019-03-12T18:02:14.523Z,8.80
2019-03-12T18:04:44.834Z,11.93
2019-03-12T18:07:15.116Z,14.57
2019-03-12T18:09:45.454Z,16.50
2019-03-12T18:12:16.019Z,18.70
2019-03-12T18:14:46.360Z,17.03
2019-03-12T18:17:16.275Z,17.30
2019-03-12T18:19:46.383Z,14.37
2019-03-12T18:22:16.706Z,15.17
2019-03-12T18:24:46.565Z,13.13
2019-03-12T18:27:16.703Z,14.60
2019-03-12T18:29:46.931Z,11.13
2019-03-12T18:32:17.210Z,9.97
2019-03-12T18:34:47.042Z,11.57
2019-03-12T18:37:17.187Z,10.33
2019-03-12T18:39:47.274Z,11.57
2019-03-12T18:42:17.627Z,10.50
2019-03-12T18:44:47.927Z,11.07
2019-03-12T18:47:19.300Z,10.10
2019-03-12T18:49:48.514Z,9.87
2019-03-12T18:52:19.023Z,10.03
2019-03-12T18:54:49.199Z,9.20
2019-03-12T18:57:19.837Z,9.90
2019-03-12T18:59:50.120Z,9.93
2019-03-12T19:02:20.443Z,10.07
2019-03-12T19:04:50.704Z,10.50
2019-03-12T19:07:20.946Z,11.80
2019-03-12T19:09:51.271Z,12.13
2019-03-12T19:12:21.751Z,12.83
2019-03-12T19:14:52.111Z,13.50
2019-03-12T19:17:22.511Z,14.13
2019-03-12T19:19:52.976Z,15.87
2019-03-12T19:22:23.291Z,15.87
2019-03-12T19:24:53.558Z,14.10
2019-03-12T19:27:23.907Z,12.23
2019-03-12T19:29:54.107Z,11.83
2019-03-12T19:32:29.512Z,10.57
2019-03-12T19:34:59.898Z,10.17
2019-03-12T19:37:30.344Z,10.77
2019-03-12T19:40:00.722Z,10.97
2019-03-12T19:42:30.983Z,11.07
2019-03-12T19:45:00.619Z,12.10
2019-03-12T19:47:30.908Z,12.70
2019-03-12T19:50:01.283Z,13.73
2019-03-12T19:52:31.715Z,10.23
2019-03-12T19:55:02.019Z,10.30
2019-03-12T19:57:32.424Z,10.13
2019-03-12T20:00:02.155Z,10.57
2019-03-12T20:02:32.639Z,10.03
2019-03-12T20:05:02.988Z,10.77
2019-03-12T20:07:33.275Z,9.63
2019-03-12T20:12:17.019Z,9.63
2019-03-12T20:17:09.404Z,9.97
2019-03-12T20:19:53.701Z,10.43
2019-03-12T20:22:39.066Z,11.53
2019-03-12T20:26:21.025Z,10.73
2019-03-12T20:28:56.071Z,12.03
2019-03-12T20:33:44.565Z,11.00
2019-03-12T20:36:25.641Z,10.13
2019-03-12T20:39:11.016Z,10.83
2019-03-12T20:44:01.428Z,10.70
2019-03-12T20:48:45.485Z,8.47
2019-03-12T20:51:32.213Z,8.30
2019-03-12T20:54:13.270Z,7.97
2019-03-12T21:01:08.504Z,6.53
2019-03-12T21:03:49.396Z,4.43
2019-03-12T21:06:30.451Z,6.40
2019-03-12T21:09:11.424Z,6.37
2019-03-12T21:12:10.523Z,5.47
2019-03-12T21:15:07.266Z,5.90
2019-03-12T21:18:18.316Z,6.13
2019-03-12T21:21:05.159Z,5.83
2019-03-12T21:23:53.851Z,5.70
2019-03-12T21:27:33.255Z,4.33
2019-03-12T21:30:01.841Z,4.53
2019-03-12T21:32:32.264Z,4.60
2019-03-12T21:35:02.692Z,5.43
2019-03-12T21:37:32.967Z,5.23
2019-03-12T21:40:03.347Z,5.43
2019-03-12T21:42:33.518Z,5.67
2019-03-12T21:45:03.947Z,6.07
2019-03-12T21:47:34.371Z,5.20
2019-03-12T21:50:04.963Z,5.33
2019-03-12T21:52:35.472Z,5.87
2019-03-12T21:55:06.813Z,6.27
2019-03-12T21:57:37.059Z,6.60
2019-03-12T22:00:10.904Z,6.23
2019-03-12T22:02:41.363Z,5.90
2019-03-12T22:05:11.699Z,6.00
2019-03-12T22:07:41.935Z,6.43
2019-03-12T22:10:12.307Z,6.67
2019-03-12T22:12:42.670Z,7.17
2019-03-12T22:15:13.156Z,7.50
2019-03-12T22:17:43.462Z,7.30
2019-03-12T22:20:13.980Z,7.43
2019-03-12T22:22:49.295Z,8.57
2019-03-12T22:25:19.582Z,8.40
2019-03-12T22:27:49.883Z,7.77
2019-03-12T22:30:21.173Z,9.10
2019-03-12T22:32:51.560Z,8.23
2019-03-12T22:35:22.020Z,9.40
2019-03-12T22:37:51.952Z,9.20
2019-03-12T22:40:22.403Z,8.63
2019-03-12T22:42:52.697Z,8.50
2019-03-12T22:45:23.103Z,9.50
2019-03-12T22:47:53.440Z,9.40
2019-03-12T22:50:23.798Z,8.97
2019-03-12T22:52:53.999Z,10.00
2019-03-12T22:55:24.370Z,9.10
2019-03-12T22:57:54.707Z,10.20
2019-03-12T23:00:25.242Z,9.33
2019-03-12T23:02:55.556Z,9.63
2019-03-12T23:05:25.832Z,9.00
2019-03-12T23:07:55.943Z,8.30
2019-03-12T23:10:26.070Z,8.50
2019-03-12T23:12:56.655Z,8.17
2019-03-12T23:15:26.882Z,7.83
2019-03-12T23:17:56.431Z,6.83
2019-03-12T23:20:26.477Z,7.93
2019-03-12T23:22:56.636Z,7.90
2019-03-12T23:25:26.839Z,8.23
2019-03-12T23:27:56.586Z,8.27
2019-03-12T23:30:28.591Z,7.57
2019-03-12T23:32:58.268Z,7.47
2019-03-12T23:35:28.507Z,8.33
2019-03-12T23:37:58.848Z,7.23
2019-03-12T23:40:29.248Z,7.70
2019-03-12T23:42:59.456Z,6.97
2019-03-12T23:45:29.586Z,6.03
2019-03-12T23:47:59.731Z,6.30
2019-03-12T23:50:30.043Z,8.60
2019-03-12T23:53:00.238Z,6.47
2019-03-12T23:55:30.471Z,10.17
2019-03-12T23:58:00.778Z,7.83
